FW0412 Weather Reports


Display with metric or nautical units.
time (UTC)temp
F
wind
direction
speed
MPH
gust
MPH
rain 1hr
in
rain 24hr
in
rain mn
in
humidity
%
barometer
mb
20190526071519 51 0.0 0.0 0.00 0.00 0.00 80 1013.8
20190526070524 51 0.0 0.0 0.00 0.00 0.00 79 1013.8
20190526065529 51 0.0 0.0 0.00 0.00 0.00 79 1013.9
20190526064516 51 0.0 0.0 0.00 0.00 0.00 77 1014.0
20190526063521 51 0.0 0.0 0.00 0.00 0.00 76 1014.2
20190526062525 51 0.0 0.0 0.00 0.00 0.00 75 1014.4
20190526061531 52 157 0.0 1.0 0.00 0.00 0.00 75 1014.5
20190526060517 52 239 0.0 2.0 0.00 0.00 0.00 74 1014.5
20190526055521 52 247 0.0 1.0 0.00 0.00 0.00 74 1014.5
20190526054526 53 289 1.0 2.0 0.00 0.00 0.00 74 1014.6
20190526053532 53 268 2.0 3.0 0.00 0.00 0.00 74 1014.5
20190526052518 53 274 2.0 3.0 0.00 0.00 0.00 74 1014.6
20190526051523 53 282 1.0 2.0 0.00 0.00 0.00 74 1014.6
20190526050528 53 267 2.0 3.0 0.00 0.00 0.00 73 1014.6
20190526045532 53 286 3.0 4.0 0.00 0.00 0.00 72 1014.6
20190526044519 54 293 3.0 4.0 0.00 0.00 0.00 72 1014.5
20190526043524 54 287 4.0 5.0 0.00 0.00 0.00 71 1014.4
20190526042529 54 280 4.0 5.0 0.00 0.00 0.00 70 1014.3
20190526041516 54 282 4.0 5.0 0.00 0.00 0.00 70 1014.3
20190526040520 55 303 4.0 5.0 0.00 0.00 0.00 69 1014.3
20190526035526 55 295 5.0 7.0 0.00 0.00 0.00 69 1014.3
20190526034517 55 297 5.0 7.0 0.00 0.00 0.00 69 1014.2
20190526033516 55 289 3.0 5.0 0.00 0.00 0.00 70 1014.2
20190526032515 55 258 3.0 6.0 0.00 0.00 0.00 70 1014.2
20190526031532 55 291 3.0 7.0 0.00 0.00 0.00 70 1014.1
20190526030518 55 251 2.0 4.0 0.00 0.00 0.00 69 1014.1
20190526025524 55 279 4.0 6.0 0.00 0.00 0.00 69 1014.1
20190526024528 55 281 2.0 5.0 0.00 0.00 0.00 68 1014.1
20190526023515 55 292 4.0 6.0 0.00 0.00 0.00 68 1014.1
20190526022520 56 268 3.0 4.0 0.00 0.00 0.00 68 1014.1
20190526021525 56 291 4.0 5.0 0.00 0.00 0.00 67 1014.2
20190526020529 56 288 4.0 7.0 0.00 0.00 0.00 67 1014.2
20190526015516 56 288 3.0 5.0 0.00 0.00 0.00 67 1014.3
20190526014521 56 308 5.0 7.0 0.00 0.00 0.00 66 1014.3
20190526013526 57 288 4.0 7.0 0.00 0.00 0.00 65 1014.3
20190526012531 57 282 4.0 5.0 0.00 0.00 0.00 65 1014.4
20190526011518 57 304 5.0 7.0 0.00 0.00 0.00 65 1014.4
20190526010523 57 286 3.0 6.0 0.00 0.00 0.00 65 1014.4
20190526005527 57 277 3.0 5.0 0.00 0.00 0.00 65 1014.4
20190526004532 57 258 4.0 5.0 0.00 0.00 0.00 66 1014.4
20190526003519 57 305 4.0 6.0 0.00 0.00 0.00 65 1014.4
20190526002524 58 297 4.0 6.0 0.00 0.00 0.00 65 1014.5
20190526001529 58 287 5.0 8.0 0.00 0.00 0.00 65 1014.5
20190526000516 58 286 5.0 7.0 0.00 0.00 0.00 65 1014.5
20190525235521 58 291 6.0 8.0 0.00 0.00 0.00 63 1014.4
20190525234526 59 297 5.0 7.0 0.00 0.00 0.00 63 1014.4
20190525233530 60 302 5.0 7.0 0.00 0.00 0.00 63 1014.5
20190525232518 59 306 5.0 10.0 0.00 0.00 0.00 62 1014.6
20190525231522 60 268 4.0 7.0 0.00 0.00 0.00 62 1014.7
20190525230527 60 258 3.0 5.0 0.00 0.00 0.00 62 1014.7
20190525225532 60 308 5.0 8.0 0.00 0.00 0.00 64 1014.7
20190525224519 60 291 5.0 8.0 0.00 0.00 0.00 64 1014.8
20190525223524 60 295 5.0 9.0 0.00 0.00 0.00 64 1014.8
20190525222529 60 294 6.0 9.0 0.00 0.00 0.00 64 1014.8
20190525221515 60 295 6.0 8.0 0.00 0.00 0.00 64 1014.9
20190525220520 60 297 6.0 8.0 0.00 0.00 0.00 65 1014.9
20190525215525 60 289 5.0 7.0 0.00 0.00 0.00 65 1014.8
20190525214530 61 276 4.0 7.0 0.00 0.00 0.00 65 1014.8
20190525213517 60 278 4.0 7.0 0.00 0.00 0.00 67 1014.8
20190525212522 60 299 7.0 10.0 0.00 0.00 0.00 66 1014.8
20190525211527 62 269 4.0 7.0 0.00 0.00 0.00 65 1014.9
20190525210531 62 287 4.0 8.0 0.00 0.00 0.00 65 1014.9
20190525205518 62 285 4.0 6.0 0.00 0.00 0.00 66 1014.9
20190525204523 61 297 5.0 6.0 0.00 0.00 0.00 67 1014.9
20190525203528 64 247 3.0 4.0 0.00 0.00 0.00 66 1014.9
20190525202515 65 280 4.0 6.0 0.00 0.00 0.00 63 1014.9
20190525201520 66 268 5.0 7.0 0.00 0.00 0.00 61 1015.0
20190525200524 67 245 3.0 7.0 0.00 0.00 0.00 59 1015.0
20190525195524 67 239 4.0 6.0 0.00 0.00 0.00 61 1015.0
20190525194516 65 233 4.0 7.0 0.00 0.00 0.00 63 1015.0
20190525193521 64 221 3.0 5.0 0.00 0.00 0.00 64 1015.1
20190525192520 62 259 4.0 5.0 0.00 0.00 0.00 68 1015.0
20190525191519 61 297 3.0 5.0 0.00 0.00 0.00 70 1015.0
20190525190518 60 194 2.0 4.0 0.00 0.00 0.00 73 1015.0
20190525185517 60 268 3.0 4.0 0.00 0.00 0.00 75 1015.0
20190525184516 59 212 3.0 4.0 0.00 0.00 0.00 76 1015.1
20190525183533 59 217 2.0 3.0 0.00 0.00 0.00 78 1015.1
20190525182520 58 183 3.0 5.0 0.00 0.00 0.00 79 1015.1
20190525181526 58 241 2.0 3.0 0.00 0.00 0.00 79 1015.1
20190525180530 57 198 3.0 4.0 0.00 0.00 0.00 79 1015.1
20190525175517 58 192 2.0 5.0 0.00 0.00 0.00 79 1015.0
20190525174522 57 183 2.0 4.0 0.00 0.00 0.00 80 1014.9
20190525173527 57 236 2.0 3.0 0.00 0.00 0.00 81 1014.7
20190525172532 57 296 2.0 3.0 0.00 0.00 0.00 83 1014.8
20190525171519 56 284 2.0 4.0 0.00 0.00 0.00 83 1014.8
20190525170524 56 212 3.0 4.0 0.00 0.00 0.00 83 1014.8
20190525165529 56 247 2.0 5.0 0.00 0.00 0.00 84 1014.9
20190525164516 56 190 3.0 5.0 0.00 0.00 0.00 83 1014.8
20190525163521 56 189 1.0 2.0 0.00 0.00 0.00 84 1014.7
20190525162526 56 149 2.0 4.0 0.00 0.00 0.00 84 1014.6
20190525161531 55 156 2.0 3.0 0.00 0.00 0.00 86 1014.6
20190525160518 55 140 3.0 4.0 0.00 0.00 0.00 87 1014.6
20190525155523 54 160 2.0 5.0 0.00 0.00 0.00 87 1014.6
20190525154528 54 138 2.0 4.0 0.00 0.00 0.00 88 1014.6
20190525153533 54 181 1.0 2.0 0.00 0.00 0.00 89 1014.6
20190525152520 54 171 2.0 2.0 0.00 0.00 0.00 90 1014.6
20190525151525 54 170 1.0 2.0 0.00 0.00 0.00 90 1014.6
20190525150529 54 196 0.0 2.0 0.00 0.00 0.00 90 1014.5
20190525145516 54 142 3.0 4.0 0.00 0.00 0.00 90 1014.3
20190525144521 54 164 2.0 3.0 0.00 0.00 0.00 90 1014.1
20190525143526 54 168 2.0 3.0 0.00 0.00 0.00 90 1014.1
20190525142531 54 0.0 0.0 0.00 0.00 0.00 91 1014.1
20190525141518 53 270 0.0 1.0 0.00 0.00 0.00 92 1014.0
20190525140523 53 342 1.0 2.0 0.00 0.00 0.00 92 1013.9
20190525135528 53 339 1.0 2.0 0.00 0.00 0.00 92 1013.8
20190525134515 53 0.0 0.0 0.00 0.00 0.00 92 1013.6
20190525133520 53 260 0.0 1.0 0.00 0.00 0.00 92 1013.6
20190525132517 53 313 1.0 2.0 0.00 0.00 0.00 93 1013.5
20190525131516 53 255 0.0 1.0 0.00 0.00 0.00 93 1013.4
20190525130515 53 238 1.0 2.0 0.00 0.00 0.00 93 1013.4
20190525125526 53 243 1.0 2.0 0.00 0.00 0.00 93 1013.5
20190525124531 53 240 1.0 2.0 0.00 0.00 0.00 93 1013.3
20190525123518 53 288 0.0 2.0 0.00 0.00 0.00 93 1013.5
20190525122523 53 103 0.0 1.0 0.00 0.00 0.00 93 1013.5
20190525121527 53 315 2.0 3.0 0.00 0.00 0.00 93 1013.5
20190525120532 53 324 1.0 2.0 0.00 0.00 0.00 93 1013.5
20190525115519 53 339 1.0 2.0 0.00 0.00 0.00 93 1013.5
20190525114524 53 322 3.0 4.0 0.00 0.00 0.00 93 1013.4
20190525113530 53 356 2.0 3.0 0.00 0.00 0.00 93 1013.2
20190525112516 53 279 1.0 4.0 0.00 0.00 0.00 93 1013.3
20190525111520 53 0.0 0.0 0.00 0.00 0.00 93 1013.2
20190525110525 53 0.0 0.0 0.00 0.00 0.00 93 1013.1
20190525105530 53 281 1.0 2.0 0.00 0.00 0.00 93 1013.3
20190525104516 53 90 0.0 1.0 0.00 0.00 0.00 93 1013.6
20190525103521 53 337 0.0 1.0 0.00 0.00 0.00 93 1013.7
20190525102527 53 300 1.0 3.0 0.00 0.00 0.00 93 1013.8
20190525101531 53 227 1.0 2.0 0.00 0.00 0.00 93 1013.8
20190525100518 52 156 2.0 2.0 0.00 0.00 0.00 93 1013.8
20190525095523 52 147 2.0 2.0 0.00 0.00 0.00 92 1014.0
20190525094530 52 143 2.0 3.0 0.00 0.00 0.00 92 1014.1
20190525093532 52 154 1.0 2.0 0.00 0.00 0.00 92 1014.3
20190525092519 52 112 0.0 1.0 0.00 0.00 0.00 92 1014.5
20190525091524 52 167 0.0 2.0 0.00 0.00 0.00 92 1014.5
20190525090529 52 135 2.0 3.0 0.00 0.00 0.00 92 1014.5
20190525085516 51 120 2.0 3.0 0.00 0.00 0.00 91 1014.6
20190525084521 51 0.0 0.0 0.00 0.00 0.00 91 1014.8
20190525083525 51 0.0 1.0 0.00 0.00 0.00 91 1015.0
20190525082531 51 145 0.0 1.0 0.00 0.00 0.00 90 1015.2
20190525081517 50 0.0 0.0 0.00 0.00 0.00 89 1015.1
20190525080522 50 0.0 0.0 0.00 0.00 0.00 89 1015.0
20190525075527 50 0.0 0.0 0.00 0.00 0.00 89 1015.2
20190525074532 50 0.0 0.0 0.00 0.00 0.00 89 1015.3
20190525073519 50 326 1.0 1.0 0.00 0.00 0.00 89 1015.5
20190525072524 50 0.0 0.0 0.00 0.00 0.00 89 1015.6